createdAt,value
2019-03-25T00:02:29.032Z,9.47
2019-03-25T00:05:06.246Z,10.33
2019-03-25T00:07:42.925Z,9.80
2019-03-25T00:10:16.151Z,9.80
2019-03-25T00:13:04.055Z,10.30
2019-03-25T00:15:41.492Z,9.73
2019-03-25T00:18:25.088Z,9.53
2019-03-25T00:21:07.174Z,32.87
2019-03-25T00:23:42.670Z,8.97
2019-03-25T00:26:40.266Z,9.27
2019-03-25T00:33:00.321Z,8.57
2019-03-25T00:36:08.901Z,9.53
2019-03-25T00:39:23.817Z,9.13
2019-03-25T00:42:47.700Z,9.67
2019-03-25T00:46:37.140Z,9.93
2019-03-25T00:49:42.988Z,9.90
2019-03-25T00:56:34.213Z,9.97
2019-03-25T01:03:23.794Z,9.90
2019-03-25T01:06:58.971Z,10.00
2019-03-25T01:09:45.374Z,9.27
2019-03-25T01:13:08.388Z,8.53
2019-03-25T01:15:59.912Z,9.33
2019-03-25T01:19:08.814Z,9.20
2019-03-25T01:22:37.443Z,9.13
2019-03-25T01:25:29.783Z,9.13
2019-03-25T01:28:47.136Z,8.73
2019-03-25T01:31:52.921Z,9.40
2019-03-25T01:34:47.711Z,8.20
2019-03-25T01:41:21.994Z,9.27
2019-03-25T01:51:23.368Z,9.30
2019-03-25T01:54:29.723Z,9.00
2019-03-25T01:58:28.701Z,9.37
2019-03-25T02:05:13.100Z,9.10
2019-03-25T02:09:06.042Z,9.43
2019-03-25T02:12:45.622Z,9.57
2019-03-25T02:23:18.956Z,9.20
2019-03-25T02:29:33.821Z,9.53
2019-03-25T02:32:22.823Z,10.13
2019-03-25T02:35:09.458Z,9.60
2019-03-25T02:38:35.868Z,9.90
2019-03-25T02:41:40.590Z,11.07
2019-03-25T02:47:21.718Z,9.83
2019-03-25T02:49:54.321Z,9.93
2019-03-25T02:52:24.301Z,9.50
2019-03-25T02:54:55.790Z,9.77
2019-03-25T02:58:02.554Z,9.90
2019-03-25T03:00:49.095Z,9.53
2019-03-25T03:06:27.931Z,9.90
2019-03-25T03:09:31.184Z,8.97
2019-03-25T03:12:17.373Z,9.10
2019-03-25T03:15:25.924Z,9.20
2019-03-25T03:18:05.653Z,8.43
2019-03-25T03:20:35.990Z,8.37
2019-03-25T03:23:10.660Z,9.37
2019-03-25T03:25:57.127Z,8.20
2019-03-25T03:28:35.121Z,8.40
2019-03-25T03:31:03.788Z,8.70
2019-03-25T03:33:45.058Z,8.37
2019-03-25T03:36:15.530Z,9.10
2019-03-25T03:38:47.029Z,9.43
2019-03-25T03:41:18.456Z,9.63
2019-03-25T03:43:54.043Z,10.50
2019-03-25T03:46:34.017Z,10.10
2019-03-25T03:49:17.121Z,10.30
2019-03-25T03:51:53.652Z,10.77
2019-03-25T03:54:24.285Z,10.03
2019-03-25T03:57:04.106Z,10.60
2019-03-25T03:59:43.232Z,9.83
2019-03-25T04:02:16.809Z,10.47
2019-03-25T04:04:48.653Z,10.43
2019-03-25T04:07:51.328Z,10.57
2019-03-25T04:10:39.568Z,9.83
2019-03-25T04:13:48.269Z,10.30
2019-03-25T04:16:28.045Z,10.33
2019-03-25T04:19:02.677Z,10.17
2019-03-25T04:21:35.791Z,11.23
2019-03-25T04:24:19.520Z,10.40
2019-03-25T04:26:54.006Z,10.33
2019-03-25T04:29:28.291Z,10.17
2019-03-25T04:31:56.766Z,10.17
2019-03-25T04:34:38.423Z,11.13
2019-03-25T04:37:12.742Z,10.43
2019-03-25T04:43:32.568Z,10.67
2019-03-25T04:46:57.480Z,10.70
2019-03-25T04:49:31.337Z,11.17
2019-03-25T04:52:09.392Z,11.00
2019-03-25T04:54:41.356Z,11.00
2019-03-25T04:57:18.181Z,11.30
2019-03-25T04:59:46.601Z,10.77
2019-03-25T05:02:22.152Z,10.77
2019-03-25T05:04:56.662Z,11.10
2019-03-25T05:07:26.429Z,12.53
2019-03-25T05:09:54.849Z,10.57
2019-03-25T05:12:26.237Z,11.10
2019-03-25T05:14:56.684Z,11.20
2019-03-25T05:17:26.994Z,11.90
2019-03-25T05:20:02.808Z,11.53
2019-03-25T05:22:31.150Z,11.00
2019-03-25T05:24:59.601Z,11.90
2019-03-25T05:27:27.763Z,12.60
2019-03-25T05:29:55.958Z,13.07
2019-03-25T05:32:24.119Z,12.57
2019-03-25T05:34:52.380Z,12.17
2019-03-25T05:37:20.733Z,13.30
2019-03-25T05:39:48.950Z,16.20
2019-03-25T05:42:17.146Z,14.97
2019-03-25T05:44:45.426Z,15.03
2019-03-25T05:47:13.561Z,14.37
2019-03-25T05:49:41.848Z,14.63
2019-03-25T05:52:10.028Z,15.20
2019-03-25T05:54:38.265Z,16.23
2019-03-25T05:57:06.438Z,16.03
2019-03-25T05:59:34.567Z,15.80
2019-03-25T06:02:02.890Z,17.40
2019-03-25T06:04:31.130Z,17.17
2019-03-25T06:06:59.393Z,16.30
2019-03-25T06:09:27.570Z,16.50
2019-03-25T06:11:55.681Z,15.30
2019-03-25T06:14:23.921Z,15.00
2019-03-25T06:16:52.120Z,15.40
2019-03-25T06:19:20.284Z,15.37
2019-03-25T06:21:48.531Z,17.20
2019-03-25T06:24:16.662Z,17.67
2019-03-25T06:26:44.846Z,17.67
2019-03-25T06:29:13.030Z,17.47
2019-03-25T06:31:41.139Z,17.40
2019-03-25T06:34:09.438Z,17.13
2019-03-25T06:36:37.592Z,16.37
2019-03-25T06:39:06.018Z,18.27
2019-03-25T06:41:34.161Z,17.57
2019-03-25T06:44:02.421Z,16.80
2019-03-25T06:46:30.608Z,19.30
2019-03-25T06:48:58.880Z,20.20
2019-03-25T06:51:27.125Z,23.87
2019-03-25T06:53:55.424Z,24.33
2019-03-25T06:56:23.585Z,24.60
2019-03-25T06:58:52.046Z,26.23
2019-03-25T07:01:20.192Z,25.50
2019-03-25T07:03:48.413Z,26.47
2019-03-25T07:06:16.675Z,25.67
2019-03-25T07:08:44.838Z,26.03
2019-03-25T07:11:13.011Z,26.90
2019-03-25T07:13:41.284Z,27.73
2019-03-25T07:16:09.480Z,25.87
2019-03-25T07:18:37.672Z,27.63
2019-03-25T07:21:05.953Z,29.70
2019-03-25T07:23:34.230Z,29.60
2019-03-25T07:26:02.527Z,29.53
2019-03-25T07:28:30.865Z,31.10
2019-03-25T07:30:59.237Z,18.80
2019-03-25T07:33:27.362Z,28.83
2019-03-25T07:35:55.650Z,27.30
2019-03-25T07:38:23.988Z,30.00
2019-03-25T07:40:52.344Z,29.13
2019-03-25T07:43:20.452Z,32.67
2019-03-25T07:45:48.695Z,29.83
2019-03-25T07:48:16.875Z,31.50
2019-03-25T07:50:45.141Z,31.40
2019-03-25T07:53:13.321Z,27.13
2019-03-25T07:55:41.504Z,33.27
2019-03-25T07:58:09.607Z,32.90
2019-03-25T08:00:37.899Z,30.97
2019-03-25T08:03:06.116Z,31.60
2019-03-25T08:05:34.413Z,32.43
2019-03-25T08:08:02.662Z,33.70
2019-03-25T08:10:35.165Z,31.33
2019-03-25T08:13:03.679Z,33.40
2019-03-25T08:15:32.379Z,30.33
2019-03-25T08:18:00.654Z,31.70
2019-03-25T08:20:28.781Z,34.43
2019-03-25T08:22:56.939Z,34.70
2019-03-25T08:25:25.125Z,31.50
2019-03-25T08:27:59.916Z,33.23
2019-03-25T08:30:23.335Z,35.43
2019-03-25T08:32:51.495Z,33.27
2019-03-25T08:35:19.633Z,35.30
2019-03-25T08:37:47.800Z,35.13
2019-03-25T08:40:16.137Z,35.70
2019-03-25T08:42:44.367Z,36.43
2019-03-25T08:45:12.932Z,34.80
2019-03-25T08:47:41.163Z,36.47
2019-03-25T08:50:09.796Z,34.87
2019-03-25T08:52:37.983Z,36.07
2019-03-25T08:55:06.649Z,34.60
2019-03-25T08:57:45.214Z,36.27
2019-03-25T09:00:22.648Z,37.37
2019-03-25T09:04:28.785Z,36.43
2019-03-25T09:05:31.691Z,34.07
2019-03-25T09:08:00.303Z,31.27
2019-03-25T09:10:38.106Z,36.70
2019-03-25T09:13:06.232Z,38.30
2019-03-25T09:15:34.410Z,25.70
2019-03-25T09:18:02.570Z,36.30
2019-03-25T09:20:30.813Z,37.67
2019-03-25T09:22:59.015Z,35.80
2019-03-25T09:25:27.350Z,36.97
2019-03-25T09:27:56.762Z,35.57
2019-03-25T09:31:17.396Z,36.17
2019-03-25T09:33:47.577Z,36.77
2019-03-25T09:36:17.288Z,37.00
2019-03-25T09:38:47.905Z,36.60
2019-03-25T09:41:16.185Z,36.00
2019-03-25T09:43:44.360Z,36.90
2019-03-25T09:46:12.636Z,36.80
2019-03-25T09:48:41.058Z,32.63
2019-03-25T09:51:09.556Z,37.03
2019-03-25T09:53:37.932Z,34.80
2019-03-25T09:56:06.141Z,30.53
2019-03-25T09:58:36.591Z,35.17
2019-03-25T10:01:04.389Z,34.43
2019-03-25T10:03:32.588Z,34.23
2019-03-25T10:06:00.949Z,36.57
2019-03-25T10:09:23.842Z,34.67
2019-03-25T10:12:19.313Z,35.07
2019-03-25T10:14:56.197Z,24.53
2019-03-25T10:18:59.584Z,33.50
2019-03-25T10:20:36.958Z,33.20
2019-03-25T10:23:05.092Z,33.13
2019-03-25T10:25:33.201Z,35.67
2019-03-25T10:28:01.387Z,30.80
2019-03-25T10:30:35.742Z,35.13
2019-03-25T10:33:04.071Z,33.60
2019-03-25T10:35:32.299Z,34.40
2019-03-25T10:38:00.541Z,34.50
2019-03-25T10:40:28.710Z,31.47
2019-03-25T10:42:59.665Z,34.13
2019-03-25T10:45:27.877Z,32.10
2019-03-25T10:48:16.945Z,31.20
2019-03-25T10:52:36.260Z,35.90
2019-03-25T10:55:00.535Z,34.03
2019-03-25T10:57:29.094Z,33.47
2019-03-25T10:59:57.283Z,33.07
2019-03-25T11:02:25.410Z,32.87
2019-03-25T11:05:46.535Z,30.50
2019-03-25T11:09:40.161Z,34.43
2019-03-25T11:12:38.253Z,38.80
2019-03-25T11:21:35.079Z,37.17
2019-03-25T11:24:39.884Z,38.00
2019-03-25T11:27:11.131Z,35.67
2019-03-25T11:29:45.770Z,36.23
2019-03-25T11:32:17.143Z,37.60
2019-03-25T11:34:45.305Z,39.90
2019-03-25T11:37:13.460Z,36.90
2019-03-25T11:39:41.755Z,39.17
2019-03-25T11:42:10.344Z,40.17
2019-03-25T11:44:38.666Z,38.63
2019-03-25T11:47:06.878Z,33.73
2019-03-25T11:49:35.156Z,40.37
2019-03-25T11:52:03.282Z,38.67
2019-03-25T11:54:31.339Z,40.03
2019-03-25T11:56:59.490Z,37.93
2019-03-25T11:59:27.643Z,39.10
2019-03-25T12:01:55.864Z,40.07
2019-03-25T12:04:24.302Z,36.90
2019-03-25T12:06:52.443Z,33.13
2019-03-25T12:09:20.725Z,38.27
2019-03-25T12:11:48.916Z,35.37
2019-03-25T12:14:17.283Z,36.57
2019-03-25T12:16:45.550Z,37.17
2019-03-25T12:19:13.786Z,31.83
2019-03-25T12:21:42.193Z,25.90
2019-03-25T12:24:10.397Z,28.93
2019-03-25T12:26:38.674Z,32.10
2019-03-25T12:29:06.995Z,34.43
2019-03-25T12:31:35.282Z,31.60
2019-03-25T12:34:04.719Z,33.20
2019-03-25T12:36:33.892Z,37.20
2019-03-25T12:39:02.189Z,39.53
2019-03-25T12:41:30.371Z,33.47
2019-03-25T12:43:58.652Z,38.10
2019-03-25T12:46:26.984Z,36.87
2019-03-25T12:48:55.301Z,37.27
2019-03-25T12:51:23.575Z,40.87
2019-03-25T12:53:51.803Z,37.67
2019-03-25T12:56:20.540Z,33.60
2019-03-25T12:58:48.708Z,36.50
2019-03-25T13:01:16.864Z,34.13
2019-03-25T13:03:45.129Z,38.93
2019-03-25T13:06:13.265Z,26.00
2019-03-25T13:08:41.518Z,37.90
2019-03-25T13:11:09.648Z,45.63
2019-03-25T13:13:37.805Z,43.27
2019-03-25T13:16:05.928Z,44.00
2019-03-25T13:18:34.225Z,43.27
2019-03-25T13:21:02.342Z,39.97
2019-03-25T13:23:30.478Z,24.63
2019-03-25T13:25:58.587Z,25.27
2019-03-25T13:28:26.740Z,17.20
2019-03-25T13:30:54.981Z,16.87
2019-03-25T13:33:23.313Z,17.57
2019-03-25T13:35:51.461Z,17.90
2019-03-25T13:38:19.603Z,16.67
2019-03-25T13:40:47.761Z,15.67
2019-03-25T13:43:15.928Z,11.93
2019-03-25T13:45:44.181Z,8.13
2019-03-25T13:48:12.315Z,4.47
2019-03-25T13:50:40.851Z,2.90
2019-03-25T13:53:09.152Z,1.90
2019-03-25T13:55:37.511Z,1.30
2019-03-25T13:58:05.589Z,1.40
2019-03-25T14:00:40.635Z,1.90
2019-03-25T14:03:08.929Z,1.67
2019-03-25T14:05:37.502Z,1.83
2019-03-25T14:08:05.968Z,2.27
2019-03-25T14:10:34.051Z,2.10
2019-03-25T14:13:02.247Z,2.03
2019-03-25T14:15:30.414Z,2.60
2019-03-25T14:17:58.746Z,2.30
2019-03-25T14:20:26.955Z,2.70
2019-03-25T14:22:55.091Z,2.60
2019-03-25T14:25:23.266Z,2.83
2019-03-25T14:27:51.356Z,2.77
2019-03-25T14:30:19.768Z,3.83
2019-03-25T14:32:48.038Z,2.77
2019-03-25T14:35:16.263Z,2.77
2019-03-25T14:37:44.353Z,3.27
2019-03-25T14:40:12.708Z,3.57
2019-03-25T14:42:41.154Z,3.13
2019-03-25T14:45:09.610Z,2.83
2019-03-25T14:47:38.063Z,4.03
2019-03-25T14:50:08.394Z,3.83
2019-03-25T14:52:36.550Z,3.63
2019-03-25T14:55:04.777Z,2.73
2019-03-25T14:57:33.439Z,2.93
2019-03-25T15:00:01.534Z,3.07
2019-03-25T15:02:29.716Z,3.60
2019-03-25T15:04:57.862Z,3.30
2019-03-25T15:07:25.989Z,3.00
2019-03-25T15:09:54.149Z,2.63
2019-03-25T15:12:22.587Z,3.10
2019-03-25T15:14:50.749Z,3.00
2019-03-25T15:17:18.866Z,2.73
2019-03-25T15:19:47.434Z,2.53
2019-03-25T15:22:16.156Z,2.40
2019-03-25T15:24:44.885Z,2.80
2019-03-25T15:27:13.621Z,2.40
2019-03-25T15:29:42.143Z,2.80
2019-03-25T15:32:11.533Z,2.57
2019-03-25T15:34:40.015Z,2.60
2019-03-25T15:37:08.532Z,3.10
2019-03-25T15:39:46.326Z,2.47
2019-03-25T15:42:07.016Z,2.80
2019-03-25T15:44:35.657Z,2.57
2019-03-25T15:47:04.304Z,2.90
2019-03-25T15:49:32.865Z,3.10
2019-03-25T15:52:01.449Z,2.90
2019-03-25T15:54:29.856Z,2.77
2019-03-25T15:56:58.148Z,2.47
2019-03-25T15:59:26.643Z,2.70
2019-03-25T16:01:55.002Z,2.73
2019-03-25T16:04:23.397Z,2.43
2019-03-25T16:06:52.073Z,2.90
2019-03-25T16:09:20.721Z,2.43
2019-03-25T16:11:48.950Z,2.70
2019-03-25T16:14:17.370Z,2.70
2019-03-25T16:16:45.820Z,3.00
2019-03-25T16:19:14.446Z,3.07
2019-03-25T16:21:42.850Z,2.90
2019-03-25T16:24:11.403Z,2.80
2019-03-25T16:26:40.188Z,2.77
2019-03-25T16:29:08.428Z,2.53
2019-03-25T16:31:36.741Z,2.50
2019-03-25T16:34:05.074Z,2.77
2019-03-25T16:36:33.499Z,2.40
2019-03-25T16:39:01.858Z,2.57
2019-03-25T16:41:30.197Z,2.57
2019-03-25T16:43:58.804Z,2.60
2019-03-25T16:46:27.774Z,2.77
2019-03-25T16:48:56.867Z,2.60
2019-03-25T16:51:25.494Z,2.63
2019-03-25T16:53:54.077Z,2.37
2019-03-25T16:56:22.417Z,2.23
2019-03-25T16:58:51.094Z,2.40
2019-03-25T17:01:19.521Z,2.17
2019-03-25T17:03:47.882Z,2.50
2019-03-25T17:06:17.461Z,2.80
2019-03-25T17:08:45.880Z,2.43
2019-03-25T17:11:14.157Z,2.13
2019-03-25T17:13:42.632Z,1.97
2019-03-25T17:16:11.140Z,2.10
2019-03-25T17:18:39.450Z,2.50
2019-03-25T17:21:08.109Z,2.80
2019-03-25T17:23:36.631Z,2.10
2019-03-25T17:26:04.797Z,1.93
2019-03-25T17:28:33.021Z,1.83
2019-03-25T17:31:03.048Z,2.13
2019-03-25T17:33:31.279Z,1.83
2019-03-25T17:35:59.475Z,1.87
2019-03-25T17:38:27.686Z,2.30
2019-03-25T17:40:55.826Z,2.40
2019-03-25T17:43:24.052Z,1.83
2019-03-25T17:45:52.216Z,1.70
2019-03-25T17:48:20.462Z,1.60
2019-03-25T17:50:48.645Z,1.37
2019-03-25T17:53:16.907Z,1.50
2019-03-25T17:55:45.164Z,1.70
2019-03-25T17:58:13.320Z,1.70
2019-03-25T18:01:03.982Z,1.30
2019-03-25T18:03:32.096Z,1.10
2019-03-25T18:06:06.204Z,1.13
2019-03-25T18:08:34.341Z,1.10
2019-03-25T18:11:02.940Z,1.30
2019-03-25T18:13:31.079Z,1.30
2019-03-25T18:15:59.245Z,1.40
2019-03-25T18:18:27.457Z,1.17
2019-03-25T18:20:55.722Z,1.63
2019-03-25T18:23:23.885Z,1.40
2019-03-25T18:25:52.022Z,1.30
2019-03-25T18:28:20.242Z,1.43
2019-03-25T18:30:48.515Z,1.17
2019-03-25T18:33:16.620Z,1.17
2019-03-25T18:35:45.141Z,1.30
2019-03-25T18:38:13.920Z,1.50
2019-03-25T18:40:42.617Z,1.30
2019-03-25T18:43:12.732Z,1.20
2019-03-25T18:45:41.665Z,1.40
2019-03-25T18:48:10.444Z,1.07
2019-03-25T18:50:39.308Z,1.20
2019-03-25T18:53:07.773Z,1.30
2019-03-25T18:55:35.977Z,1.10
2019-03-25T18:58:04.705Z,2.23
2019-03-25T19:00:33.488Z,1.00
2019-03-25T19:03:01.756Z,0.93
2019-03-25T19:05:29.966Z,1.00
2019-03-25T19:08:00.116Z,1.30
2019-03-25T19:10:28.843Z,1.30
2019-03-25T19:12:57.021Z,1.20
2019-03-25T19:15:25.203Z,1.10
2019-03-25T19:17:53.372Z,1.27
2019-03-25T19:20:21.592Z,1.50
2019-03-25T19:22:49.811Z,1.27
2019-03-25T19:25:17.953Z,1.13
2019-03-25T19:27:46.203Z,1.27
2019-03-25T19:30:14.446Z,0.87
2019-03-25T19:32:42.570Z,1.43
2019-03-25T19:35:10.916Z,1.10
2019-03-25T19:37:39.095Z,1.30
2019-03-25T19:40:07.459Z,1.40
2019-03-25T19:42:35.722Z,1.50
2019-03-25T19:45:04.114Z,1.50
2019-03-25T19:47:32.317Z,1.23
2019-03-25T19:50:00.493Z,1.03
2019-03-25T19:52:28.892Z,1.70
2019-03-25T19:54:57.052Z,1.40
2019-03-25T19:57:28.023Z,1.33
2019-03-25T19:59:55.148Z,1.20
2019-03-25T20:02:23.449Z,1.10
2019-03-25T20:04:51.609Z,1.10
2019-03-25T20:07:19.828Z,1.10
2019-03-25T20:09:48.021Z,1.70
2019-03-25T20:12:16.184Z,1.20
2019-03-25T20:14:44.491Z,0.70
2019-03-25T20:17:12.709Z,1.40
2019-03-25T20:19:40.901Z,1.40
2019-03-25T20:22:09.121Z,1.37
2019-03-25T20:24:37.367Z,1.27
2019-03-25T20:27:05.900Z,1.63
2019-03-25T20:29:34.043Z,1.17
2019-03-25T20:32:02.263Z,1.30
2019-03-25T20:34:30.417Z,1.40
2019-03-25T20:36:58.644Z,1.50
2019-03-25T20:39:26.842Z,1.10
2019-03-25T20:41:55.060Z,1.60
2019-03-25T20:44:23.948Z,1.00
2019-03-25T20:46:52.240Z,1.10
2019-03-25T20:49:20.729Z,1.00
2019-03-25T20:51:49.093Z,1.10
2019-03-25T20:54:17.601Z,0.93
2019-03-25T20:56:46.212Z,1.20
2019-03-25T20:59:14.633Z,1.10
2019-03-25T21:01:42.999Z,1.00
2019-03-25T21:04:11.157Z,1.10
2019-03-25T21:06:39.286Z,0.93
2019-03-25T21:09:07.769Z,1.20
2019-03-25T21:11:35.996Z,0.90
2019-03-25T21:14:04.264Z,1.00
2019-03-25T21:16:32.450Z,1.20
2019-03-25T21:19:00.798Z,1.00
2019-03-25T21:21:29.011Z,1.10
2019-03-25T21:23:59.132Z,1.20
2019-03-25T21:26:27.327Z,1.20
2019-03-25T21:28:55.464Z,1.30
2019-03-25T21:31:24.000Z,1.43
2019-03-25T21:33:52.187Z,1.43
2019-03-25T21:36:20.669Z,1.00
2019-03-25T21:38:48.845Z,1.07
2019-03-25T21:41:17.166Z,1.30
2019-03-25T21:43:45.582Z,1.00
2019-03-25T21:46:13.774Z,1.23
2019-03-25T21:48:41.936Z,1.20
2019-03-25T21:51:10.423Z,1.10
2019-03-25T21:53:44.036Z,1.10
2019-03-25T21:56:12.283Z,1.30
2019-03-25T21:58:40.742Z,1.20
2019-03-25T22:01:08.899Z,1.27
2019-03-25T22:03:37.062Z,1.17
2019-03-25T22:06:05.957Z,1.27
2019-03-25T22:08:34.182Z,1.30
2019-03-25T22:11:03.490Z,1.20
2019-03-25T22:13:31.590Z,1.20
2019-03-25T22:15:59.696Z,0.90
2019-03-25T22:18:30.562Z,1.00
2019-03-25T22:20:57.872Z,1.40
2019-03-25T22:23:29.552Z,1.00
2019-03-25T22:25:58.672Z,0.97
2019-03-25T22:28:27.303Z,1.30
2019-03-25T22:31:04.692Z,1.10
2019-03-25T22:33:36.037Z,0.80
2019-03-25T22:36:04.996Z,0.80
2019-03-25T22:38:33.789Z,1.00
2019-03-25T22:41:01.994Z,0.93
2019-03-25T22:43:30.118Z,0.93
2019-03-25T22:45:58.297Z,0.90
2019-03-25T22:48:26.560Z,0.80
2019-03-25T22:50:54.755Z,1.00
2019-03-25T22:53:22.874Z,0.80
2019-03-25T22:55:51.032Z,0.80
2019-03-25T22:58:19.174Z,0.77
2019-03-25T23:00:47.869Z,0.90
2019-03-25T23:03:16.358Z,0.87
2019-03-25T23:05:44.519Z,0.70
2019-03-25T23:08:12.648Z,0.70
2019-03-25T23:10:40.808Z,0.80
2019-03-25T23:13:09.190Z,0.90
2019-03-25T23:15:37.393Z,0.70
2019-03-25T23:18:05.464Z,0.90
2019-03-25T23:20:33.627Z,0.90
2019-03-25T23:23:01.743Z,1.00
